Time,TemperatureF,DewpointF,PressureIn,WindDirection,WindDirectionDegrees,WindSpeedMPH,WindSpeedGustMPH,Humidity,HourlyPrecipIn,Conditions,Clouds,dailyrainin,SoftwareType,DateUTC
2013-03-31 00:06:00,28.7,20.5,30.14,WNW,296,0.0,0.0,71,0.00,,CLR,0.00,VWS V14.01,2013-03-31 04:06:00,
2013-03-31 00:11:00,28.4,19.2,30.14,WNW,295,0.0,0.0,68,0.00,,CLR,0.00,VWS V14.01,2013-03-31 04:11:00,
2013-03-31 00:16:00,28.4,19.2,30.13,WNW,296,0.0,0.0,68,0.00,,CLR,0.00,VWS V14.01,2013-03-31 04:16:00,
2013-03-31 00:21:00,28.3,18.8,30.13,WNW,295,0.0,0.0,67,0.00,,CLR,0.00,VWS V14.01,2013-03-31 04:21:00,
2013-03-31 00:26:00,28.3,18.4,30.13,WNW,295,0.0,0.0,66,0.00,,CLR,0.00,VWS V14.01,2013-03-31 04:26:00,
2013-03-31 00:31:00,28.1,18.6,30.13,WNW,295,0.0,0.0,67,0.00,,CLR,0.00,VWS V14.01,2013-03-31 04:31:00,
2013-03-31 00:36:00,28.1,18.6,30.13,WNW,295,0.0,0.0,67,0.00,,CLR,0.00,VWS V14.01,2013-03-31 04:36:00,
2013-03-31 00:41:00,28.0,18.8,30.13,WNW,295,0.0,0.0,68,0.00,,CLR,0.00,VWS V14.01,2013-03-31 04:41:00,
2013-03-31 00:46:00,28.0,18.8,30.14,WNW,296,0.0,0.0,68,0.00,,CLR,0.00,VWS V14.01,2013-03-31 04:46:00,
2013-03-31 00:51:00,27.8,18.6,30.14,WNW,296,0.0,0.0,68,0.00,,CLR,0.00,VWS V14.01,2013-03-31 04:51:00,
2013-03-31 00:56:00,27.8,19.6,30.14,WNW,295,0.0,0.0,71,0.00,,CLR,0.00,VWS V14.01,2013-03-31 04:56:00,
2013-03-31 01:01:00,27.8,19.6,30.14,WNW,296,0.0,0.0,71,0.00,,CLR,0.00,VWS V14.01,2013-03-31 05:01:00,
2013-03-31 01:06:00,27.7,20.2,30.14,WNW,296,0.0,0.0,73,0.00,,CLR,0.00,VWS V14.01,2013-03-31 05:06:00,
2013-03-31 01:11:00,27.7,20.8,30.14,WNW,296,0.0,0.0,75,0.00,,CLR,0.00,VWS V14.01,2013-03-31 05:11:00,
2013-03-31 01:16:00,27.7,21.1,30.14,WNW,295,0.0,0.0,76,0.00,,CLR,0.00,VWS V14.01,2013-03-31 05:16:00,
2013-03-31 01:21:00,27.5,20.3,30.14,WNW,295,0.0,0.0,74,0.00,,CLR,0.00,VWS V14.01,2013-03-31 05:21:00,
2013-03-31 01:26:00,27.4,20.2,30.14,WNW,296,0.0,0.0,74,0.00,,CLR,0.00,VWS V14.01,2013-03-31 05:26:00,
2013-03-31 01:31:00,27.4,20.2,30.13,WNW,295,0.0,1.5,74,0.00,,CLR,0.00,VWS V14.01,2013-03-31 05:31:00,
2013-03-31 01:37:00,27.2,19.7,30.13,WNW,295,0.0,1.5,73,0.00,,CLR,0.00,VWS V14.01,2013-03-31 05:37:00,
2013-03-31 01:42:00,27.2,19.7,30.13,WNW,295,0.0,1.5,73,0.00,,CLR,0.00,VWS V14.01,2013-03-31 05:42:00,
2013-03-31 01:47:00,27.2,19.7,30.13,WNW,295,0.0,1.5,73,0.00,,CLR,0.00,VWS V14.01,2013-03-31 05:47:00,
2013-03-31 01:52:00,27.1,19.9,30.13,WNW,296,0.0,0.0,74,0.00,,CLR,0.00,VWS V14.01,2013-03-31 05:52:00,
2013-03-31 01:57:00,27.1,19.9,30.13,WNW,295,0.0,0.0,74,0.00,,CLR,0.00,VWS V14.01,2013-03-31 05:57:00,
2013-03-31 02:02:00,26.9,19.7,30.13,WNW,296,0.0,0.0,74,0.00,,CLR,0.00,VWS V14.01,2013-03-31 06:02:00,
2013-03-31 02:07:00,26.9,20.0,30.13,WNW,295,0.0,0.0,75,0.00,,CLR,0.00,VWS V14.01,2013-03-31 06:07:00,
2013-03-31 02:12:00,26.9,20.4,30.13,WNW,296,0.0,0.0,76,0.00,,CLR,0.00,VWS V14.01,2013-03-31 06:12:00,
2013-03-31 02:17:00,26.8,20.6,30.13,WNW,296,0.0,0.0,77,0.00,,CLR,0.00,VWS V14.01,2013-03-31 06:17:00,
2013-03-31 02:22:00,26.6,20.4,30.13,WNW,295,0.0,0.0,77,0.00,,CLR,0.00,VWS V14.01,2013-03-31 06:22:00,
2013-03-31 02:27:00,26.6,20.4,30.13,WNW,295,0.0,0.0,77,0.00,,CLR,0.00,VWS V14.01,2013-03-31 06:27:00,
2013-03-31 02:32:00,26.6,20.1,30.14,WNW,295,0.0,0.0,76,0.00,,CLR,0.00,VWS V14.01,2013-03-31 06:32:00,
2013-03-31 02:37:00,26.6,20.1,30.14,WNW,296,0.0,0.0,76,0.00,,CLR,0.00,VWS V14.01,2013-03-31 06:37:00,
2013-03-31 02:42:00,26.5,20.3,30.14,WNW,296,0.0,0.0,77,0.00,,CLR,0.00,VWS V14.01,2013-03-31 06:42:00,
2013-03-31 02:47:00,26.5,20.0,30.14,WNW,296,0.0,0.0,76,0.00,,CLR,0.00,VWS V14.01,2013-03-31 06:47:00,
2013-03-31 02:52:00,26.3,19.5,30.14,WNW,296,0.0,0.0,75,0.00,,CLR,0.00,VWS V14.01,2013-03-31 06:52:00,
2013-03-31 02:57:00,26.5,20.3,30.14,WNW,295,0.0,0.0,77,0.00,,CLR,0.00,VWS V14.01,2013-03-31 06:57:00,
2013-03-31 03:02:00,26.6,20.7,30.14,WNW,295,0.0,0.0,78,0.00,,CLR,0.00,VWS V14.01,2013-03-31 07:02:00,
2013-03-31 03:07:00,26.6,20.7,30.14,WNW,295,0.0,0.0,78,0.00,,CLR,0.00,VWS V14.01,2013-03-31 07:07:00,
2013-03-31 03:12:00,26.5,20.6,30.14,WNW,295,0.0,0.0,78,0.00,,CLR,0.00,VWS V14.01,2013-03-31 07:12:00,
2013-03-31 03:17:00,26.3,20.4,30.14,WNW,295,0.0,0.0,78,0.00,,CLR,0.00,VWS V14.01,2013-03-31 07:17:00,
2013-03-31 03:22:00,26.2,20.3,30.14,WNW,295,0.0,0.0,78,0.00,,CLR,0.00,VWS V14.01,2013-03-31 07:22:00,
2013-03-31 03:27:00,26.0,19.8,30.14,WNW,296,0.0,0.0,77,0.00,,CLR,0.00,VWS V14.01,2013-03-31 07:27:00,
2013-03-31 03:32:00,26.0,19.8,30.14,WNW,295,0.0,0.0,77,0.00,,CLR,0.00,VWS V14.01,2013-03-31 07:32:00,
2013-03-31 03:37:00,25.9,19.4,30.14,WNW,296,0.0,0.0,76,0.00,,CLR,0.00,VWS V14.01,2013-03-31 07:37:00,
2013-03-31 03:42:00,25.9,19.7,30.14,WNW,295,0.0,0.0,77,0.00,,CLR,0.00,VWS V14.01,2013-03-31 07:42:00,
2013-03-31 03:47:00,25.7,19.5,30.14,WNW,296,0.0,0.0,77,0.00,,CLR,0.00,VWS V14.01,2013-03-31 07:47:00,
2013-03-31 03:52:00,25.7,20.1,30.14,WNW,295,0.0,0.0,79,0.00,,CLR,0.00,VWS V14.01,2013-03-31 07:52:00,
2013-03-31 03:57:00,25.9,20.9,30.14,WNW,295,0.0,0.0,81,0.00,,CLR,0.00,VWS V14.01,2013-03-31 07:57:00,
2013-03-31 04:03:00,26.0,21.0,30.14,WNW,296,0.0,0.0,81,0.00,,CLR,0.00,VWS V14.01,2013-03-31 08:03:00,
2013-03-31 04:07:00,26.0,21.0,30.14,WNW,295,0.0,1.5,81,0.00,,CLR,0.00,VWS V14.01,2013-03-31 08:07:00,
2013-03-31 04:13:00,26.0,21.0,30.14,WNW,295,0.0,1.5,81,0.00,,CLR,0.00,VWS V14.01,2013-03-31 08:13:00,
2013-03-31 04:18:00,25.9,20.9,30.14,WNW,295,0.0,1.5,81,0.00,,CLR,0.00,VWS V14.01,2013-03-31 08:18:00,
2013-03-31 04:23:00,25.7,20.7,30.14,WNW,295,0.0,1.5,81,0.00,,CLR,0.00,VWS V14.01,2013-03-31 08:23:00,
2013-03-31 04:28:00,25.6,20.6,30.14,WNW,296,0.0,0.0,81,0.00,,CLR,0.00,VWS V14.01,2013-03-31 08:28:00,
2013-03-31 04:33:00,25.4,20.4,30.14,WNW,295,0.0,0.0,81,0.00,,CLR,0.00,VWS V14.01,2013-03-31 08:33:00,
2013-03-31 04:38:00,25.4,20.4,30.14,WNW,295,0.0,0.0,81,0.00,,CLR,0.00,VWS V14.01,2013-03-31 08:38:00,
2013-03-31 04:43:00,25.3,20.6,30.14,WNW,296,0.0,0.0,82,0.00,,CLR,0.00,VWS V14.01,2013-03-31 08:43:00,
2013-03-31 04:48:00,25.1,20.4,30.14,WNW,295,0.0,0.0,82,0.00,,CLR,0.00,VWS V14.01,2013-03-31 08:48:00,
2013-03-31 04:53:00,25.1,20.4,30.14,WNW,295,0.0,0.0,82,0.00,,CLR,0.00,VWS V14.01,2013-03-31 08:53:00,
2013-03-31 04:58:00,25.0,20.3,30.14,WNW,296,0.0,0.0,82,0.00,,CLR,0.00,VWS V14.01,2013-03-31 08:58:00,
2013-03-31 05:03:00,25.0,20.6,30.14,WNW,296,0.0,0.0,83,0.00,,CLR,0.00,VWS V14.01,2013-03-31 09:03:00,
2013-03-31 05:08:00,25.0,20.6,30.14,WNW,295,0.0,0.0,83,0.00,,CLR,0.00,VWS V14.01,2013-03-31 09:08:00,
2013-03-31 05:13:00,24.8,20.4,30.14,WNW,296,0.0,0.0,83,0.00,,CLR,0.00,VWS V14.01,2013-03-31 09:13:00,
2013-03-31 05:18:00,24.8,20.4,30.14,WNW,295,0.0,0.0,83,0.00,,CLR,0.00,VWS V14.01,2013-03-31 09:18:00,
2013-03-31 05:23:00,24.8,20.4,30.14,WNW,296,0.0,0.0,83,0.00,,CLR,0.00,VWS V14.01,2013-03-31 09:23:00,
2013-03-31 05:28:00,24.7,20.6,30.14,WNW,295,0.0,0.0,84,0.00,,CLR,0.00,VWS V14.01,2013-03-31 09:28:00,
2013-03-31 05:33:00,24.7,20.6,30.14,WNW,295,0.0,0.0,84,0.00,,CLR,0.00,VWS V14.01,2013-03-31 09:33:00,
2013-03-31 05:38:00,24.6,20.5,30.14,WNW,295,0.0,0.0,84,0.00,,CLR,0.00,VWS V14.01,2013-03-31 09:38:00,
2013-03-31 05:43:00,24.4,20.3,30.14,WNW,296,0.0,0.0,84,0.00,,CLR,0.00,VWS V14.01,2013-03-31 09:43:00,
2013-03-31 05:48:00,24.4,20.0,30.14,WNW,296,0.0,0.0,83,0.00,,CLR,0.00,VWS V14.01,2013-03-31 09:48:00,
2013-03-31 05:53:00,24.3,20.2,30.14,WNW,295,0.0,0.0,84,0.00,,CLR,0.00,VWS V14.01,2013-03-31 09:53:00,
2013-03-31 05:58:00,24.3,20.2,30.14,WNW,295,0.0,0.0,84,0.00,,CLR,0.00,VWS V14.01,2013-03-31 09:58:00,
2013-03-31 06:03:00,24.3,20.5,30.14,WNW,295,0.0,0.0,85,0.00,,CLR,0.00,VWS V14.01,2013-03-31 10:03:00,
2013-03-31 06:08:00,24.1,20.2,30.14,WNW,296,0.0,0.0,85,0.00,,CLR,0.00,VWS V14.01,2013-03-31 10:08:00,
2013-03-31 06:13:00,24.1,20.2,30.14,WNW,296,0.0,0.0,85,0.00,,CLR,0.00,VWS V14.01,2013-03-31 10:13:00,
2013-03-31 06:18:00,24.0,20.1,30.14,WNW,296,0.0,0.0,85,0.00,,CLR,0.00,VWS V14.01,2013-03-31 10:18:00,
2013-03-31 06:23:00,24.0,20.1,30.14,WNW,295,0.0,0.0,85,0.00,,CLR,0.00,VWS V14.01,2013-03-31 10:23:00,
2013-03-31 06:28:00,23.8,19.7,30.14,WNW,296,0.0,0.0,84,0.00,,CLR,0.00,VWS V14.01,2013-03-31 10:28:00,
2013-03-31 06:33:00,23.7,19.6,30.14,WNW,295,0.0,0.0,84,0.00,,CLR,0.00,VWS V14.01,2013-03-31 10:33:00,
2013-03-31 06:38:00,23.7,19.6,30.14,WNW,295,0.0,0.0,84,0.00,,CLR,0.00,VWS V14.01,2013-03-31 10:38:00,
2013-03-31 06:43:00,23.7,19.9,30.14,WNW,295,0.0,0.0,85,0.00,,CLR,0.00,VWS V14.01,2013-03-31 10:43:00,
2013-03-31 06:48:00,23.8,20.0,30.14,WNW,295,0.0,0.0,85,0.00,,CLR,0.00,VWS V14.01,2013-03-31 10:48:00,
2013-03-31 06:53:00,24.0,20.1,30.14,WNW,296,0.0,0.0,85,0.00,,CLR,0.00,VWS V14.01,2013-03-31 10:53:00,
2013-03-31 06:58:00,24.1,20.2,30.14,WNW,295,0.0,0.0,85,0.00,,CLR,0.00,VWS V14.01,2013-03-31 10:58:00,
2013-03-31 07:03:00,24.3,20.2,30.13,WNW,295,0.0,0.0,84,0.00,,CLR,0.00,VWS V14.01,2013-03-31 11:03:00,
2013-03-31 07:08:00,24.3,19.9,30.13,WNW,295,0.0,0.0,83,0.00,,CLR,0.00,VWS V14.01,2013-03-31 11:08:00,
2013-03-31 07:13:00,24.6,20.2,30.13,WNW,296,0.0,0.0,83,0.00,,CLR,0.00,VWS V14.01,2013-03-31 11:13:00,
2013-03-31 07:19:00,24.8,20.4,30.14,WNW,295,0.0,0.0,83,0.00,,CLR,0.00,VWS V14.01,2013-03-31 11:19:00,
2013-03-31 07:24:00,25.4,21.2,30.14,WNW,295,0.0,0.0,84,0.00,,CLR,0.00,VWS V14.01,2013-03-31 11:24:00,
2013-03-31 07:29:00,26.3,21.9,30.14,WNW,296,0.0,0.0,83,0.00,,CLR,0.00,VWS V14.01,2013-03-31 11:29:00,
2013-03-31 07:34:00,27.1,22.4,30.14,WNW,296,0.0,0.0,82,0.00,,CLR,0.00,VWS V14.01,2013-03-31 11:34:00,
2013-03-31 07:39:00,27.8,22.4,30.14,WNW,295,0.0,0.0,80,0.00,,CLR,0.00,VWS V14.01,2013-03-31 11:39:00,
2013-03-31 07:44:00,28.4,22.7,30.14,WNW,296,0.0,0.0,79,0.00,,CLR,0.00,VWS V14.01,2013-03-31 11:44:00,
2013-03-31 07:49:00,28.8,22.8,30.14,WNW,296,0.0,0.0,78,0.00,,CLR,0.00,VWS V14.01,2013-03-31 11:49:00,
2013-03-31 07:54:00,29.1,22.8,30.14,WNW,295,0.0,0.0,77,0.00,,CLR,0.00,VWS V14.01,2013-03-31 11:54:00,
2013-03-31 07:59:00,29.6,23.3,30.14,WNW,295,0.0,0.0,77,0.00,,CLR,0.00,VWS V14.01,2013-03-31 11:59:00,
2013-03-31 08:04:00,30.0,23.7,30.14,WNW,295,0.0,0.0,77,0.00,,CLR,0.00,VWS V14.01,2013-03-31 12:04:00,
2013-03-31 08:09:00,30.6,23.6,30.14,WNW,296,0.0,1.5,75,0.00,,CLR,0.00,VWS V14.01,2013-03-31 12:09:00,
2013-03-31 08:14:00,31.2,24.2,30.15,WSW,238,1.5,3.0,75,0.00,,CLR,0.00,VWS V14.01,2013-03-31 12:14:00,
2013-03-31 08:19:00,30.8,23.2,30.15,SW,236,0.0,3.0,73,0.00,,CLR,0.00,VWS V14.01,2013-03-31 12:19:00,
2013-03-31 08:24:00,30.3,23.3,30.15,SW,236,0.0,3.0,75,0.00,,CLR,0.00,VWS V14.01,2013-03-31 12:24:00,
2013-03-31 08:29:00,30.3,23.3,30.15,SW,236,0.0,3.0,75,0.00,,CLR,0.00,VWS V14.01,2013-03-31 12:29:00,
2013-03-31 08:34:00,30.9,24.2,30.15,SW,236,0.0,3.0,76,0.00,,CLR,0.00,VWS V14.01,2013-03-31 12:34:00,
2013-03-31 08:39:00,31.4,24.4,30.15,SW,236,0.0,1.5,75,0.00,,CLR,0.00,VWS V14.01,2013-03-31 12:39:00,
2013-03-31 08:44:00,31.5,24.5,30.14,SW,235,0.0,1.5,75,0.00,,CLR,0.00,VWS V14.01,2013-03-31 12:44:00,
2013-03-31 08:49:00,31.5,23.9,30.14,SW,235,0.0,0.0,73,0.00,,CLR,0.00,VWS V14.01,2013-03-31 12:49:00,
2013-03-31 08:54:00,31.5,23.2,30.14,SW,236,3.0,3.0,71,0.00,,CLR,0.00,VWS V14.01,2013-03-31 12:54:00,
2013-03-31 08:59:00,31.5,23.9,30.13,SW,235,0.0,3.0,73,0.00,,CLR,0.00,VWS V14.01,2013-03-31 12:59:00,
2013-03-31 09:04:00,31.5,23.5,30.13,WSW,237,0.0,3.0,72,0.00,,CLR,0.00,VWS V14.01,2013-03-31 13:04:00,
2013-03-31 09:09:00,31.7,23.4,30.13,SW,235,0.0,3.0,71,0.00,,CLR,0.00,VWS V14.01,2013-03-31 13:09:00,
2013-03-31 09:14:00,31.8,23.5,30.13,SW,236,0.0,3.0,71,0.00,,CLR,0.00,VWS V14.01,2013-03-31 13:14:00,
2013-03-31 09:19:00,31.9,23.2,30.13,SW,236,3.0,3.0,70,0.00,,CLR,0.00,VWS V14.01,2013-03-31 13:19:00,
2013-03-31 09:24:00,32.4,24.1,30.13,SW,235,0.0,3.0,71,0.00,,CLR,0.00,VWS V14.01,2013-03-31 13:24:00,
2013-03-31 09:29:00,32.5,24.5,30.13,SW,235,0.0,3.0,72,0.00,,CLR,0.00,VWS V14.01,2013-03-31 13:29:00,
2013-03-31 09:34:00,32.8,24.1,30.13,SW,236,0.0,3.0,70,0.00,,CLR,0.00,VWS V14.01,2013-03-31 13:34:00,
2013-03-31 09:39:00,33.4,24.7,30.13,SW,235,0.0,3.0,70,0.00,,CLR,0.00,VWS V14.01,2013-03-31 13:39:00,
2013-03-31 09:44:00,33.9,24.5,30.12,SW,235,0.0,1.5,68,0.00,,CLR,0.00,VWS V14.01,2013-03-31 13:44:00,
2013-03-31 09:49:00,34.2,25.1,30.12,SW,236,0.0,1.5,69,0.00,,CLR,0.00,VWS V14.01,2013-03-31 13:49:00,
2013-03-31 09:55:00,34.5,25.4,30.12,SW,235,0.0,1.5,69,0.00,,CLR,0.00,VWS V14.01,2013-03-31 13:55:00,
2013-03-31 10:00:00,34.8,23.9,30.12,SW,236,0.0,1.5,64,0.00,,CLR,0.00,VWS V14.01,2013-03-31 14:00:00,
2013-03-31 10:05:00,34.9,24.3,30.12,SW,235,0.0,1.5,65,0.00,,CLR,0.00,VWS V14.01,2013-03-31 14:05:00,
2013-03-31 10:10:00,35.3,24.7,30.12,SW,235,0.0,1.5,65,0.00,,CLR,0.00,VWS V14.01,2013-03-31 14:10:00,
2013-03-31 10:15:00,35.8,23.7,30.12,SW,236,0.0,1.5,61,0.00,,CLR,0.00,VWS V14.01,2013-03-31 14:15:00,
2013-03-31 10:20:00,36.2,23.3,30.12,SW,236,0.0,1.5,59,0.00,,CLR,0.00,VWS V14.01,2013-03-31 14:20:00,
2013-03-31 10:25:00,36.6,22.4,30.12,SW,235,0.0,1.5,56,0.00,,CLR,0.00,VWS V14.01,2013-03-31 14:25:00,
2013-03-31 10:30:00,37.2,23.4,30.12,SW,235,0.0,1.5,57,0.00,,CLR,0.00,VWS V14.01,2013-03-31 14:30:00,
2013-03-31 10:35:00,37.9,23.6,30.12,SW,236,0.0,1.5,56,0.00,,CLR,0.00,VWS V14.01,2013-03-31 14:35:00,
2013-03-31 10:40:00,38.5,25.8,30.12,SW,235,0.0,1.5,60,0.00,,CLR,0.00,VWS V14.01,2013-03-31 14:40:00,
2013-03-31 10:45:00,38.5,25.4,30.11,SW,235,0.0,1.5,59,0.00,,CLR,0.00,VWS V14.01,2013-03-31 14:45:00,
2013-03-31 10:50:00,38.1,25.1,30.11,SW,236,0.0,1.5,59,0.00,,CLR,0.00,VWS V14.01,2013-03-31 14:50:00,
2013-03-31 10:55:00,38.3,24.0,30.11,SW,235,0.0,1.5,56,0.00,,CLR,0.00,VWS V14.01,2013-03-31 14:55:00,
2013-03-31 11:00:00,38.6,23.4,30.11,SW,228,0.0,3.0,54,0.00,,CLR,0.00,VWS V14.01,2013-03-31 15:00:00,
2013-03-31 11:05:00,38.8,24.9,30.11,SSE,165,1.5,6.0,57,0.00,,CLR,0.00,VWS V14.01,2013-03-31 15:05:00,
2013-03-31 11:10:00,39.3,24.5,30.11,SSE,165,0.0,6.0,55,0.00,,CLR,0.00,VWS V14.01,2013-03-31 15:10:00,
2013-03-31 11:15:00,40.1,23.9,30.11,SSE,165,0.0,6.0,52,0.00,,CLR,0.00,VWS V14.01,2013-03-31 15:15:00,
2013-03-31 11:20:00,40.1,22.0,30.11,SSE,165,0.0,6.0,48,0.00,,CLR,0.00,VWS V14.01,2013-03-31 15:20:00,
2013-03-31 11:25:00,40.5,18.7,30.11,SSE,165,0.0,6.0,41,0.00,,CLR,0.00,VWS V14.01,2013-03-31 15:25:00,
2013-03-31 11:30:00,41.1,16.2,30.10,SSE,164,0.0,1.5,36,0.00,,CLR,0.00,VWS V14.01,2013-03-31 15:30:00,
2013-03-31 11:35:00,41.8,16.2,30.10,SSE,164,0.0,1.5,35,0.00,,CLR,0.00,VWS V14.01,2013-03-31 15:35:00,
2013-03-31 11:40:00,42.1,16.4,30.10,SSE,162,0.0,1.5,35,0.00,,CLR,0.00,VWS V14.01,2013-03-31 15:40:00,
2013-03-31 11:45:00,42.8,17.7,30.10,SSE,161,0.0,1.5,36,0.00,,CLR,0.00,VWS V14.01,2013-03-31 15:45:00,
2013-03-31 11:50:00,42.8,23.0,30.10,SSE,161,0.0,3.0,45,0.00,,CLR,0.00,VWS V14.01,2013-03-31 15:50:00,
2013-03-31 11:55:00,42.1,18.3,30.10,SSE,161,0.0,3.0,38,0.00,,CLR,0.00,VWS V14.01,2013-03-31 15:55:00,
2013-03-31 12:00:00,41.8,18.7,30.09,South,180,0.0,3.0,39,0.00,,CLR,0.00,VWS V14.01,2013-03-31 16:00:00,
2013-03-31 12:05:00,41.9,21.6,30.09,SSE,161,0.0,3.0,44,0.00,,CLR,0.00,VWS V14.01,2013-03-31 16:05:00,
2013-03-31 12:10:00,42.1,21.8,30.09,SSE,161,0.0,3.0,44,0.00,,CLR,0.00,VWS V14.01,2013-03-31 16:10:00,
2013-03-31 12:15:00,42.3,19.7,30.08,SSE,161,0.0,3.0,40,0.00,,CLR,0.00,VWS V14.01,2013-03-31 16:15:00,
2013-03-31 12:20:00,42.9,17.8,30.08,SSE,159,0.0,3.0,36,0.00,,CLR,0.00,VWS V14.01,2013-03-31 16:20:00,
2013-03-31 12:25:00,43.3,15.4,30.08,SE,124,0.0,3.0,32,0.00,,CLR,0.00,VWS V14.01,2013-03-31 16:25:00,
2013-03-31 12:30:00,44.4,20.4,30.07,SE,124,0.0,3.0,38,0.00,,CLR,0.00,VWS V14.01,2013-03-31 16:30:00,
2013-03-31 12:35:00,44.7,15.9,30.07,SE,124,1.5,3.0,31,0.00,,CLR,0.00,VWS V14.01,2013-03-31 16:35:00,
2013-03-31 12:40:00,45.1,17.0,30.07,ESE,119,4.5,4.5,32,0.00,,CLR,0.00,VWS V14.01,2013-03-31 16:40:00,
2013-03-31 12:45:00,45.4,15.0,30.06,ESE,112,0.0,4.5,29,0.00,,CLR,0.00,VWS V14.01,2013-03-31 16:45:00,
2013-03-31 12:50:00,46.3,17.3,30.06,ESE,112,0.0,4.5,31,0.00,,CLR,0.00,VWS V14.01,2013-03-31 16:50:00,
2013-03-31 12:55:00,46.7,14.5,30.06,ESE,112,0.0,4.5,27,0.00,,CLR,0.00,VWS V14.01,2013-03-31 16:55:00,
2013-03-31 13:00:00,47.0,20.8,30.06,ESE,106,3.0,4.5,35,0.00,,CLR,0.00,VWS V14.01,2013-03-31 17:00:00,
2013-03-31 13:05:00,46.4,18.9,30.06,ESE,106,0.0,4.5,33,0.00,,CLR,0.00,VWS V14.01,2013-03-31 17:05:00,
2013-03-31 13:10:00,46.4,15.9,30.06,ESE,106,0.0,4.5,29,0.00,,CLR,0.00,VWS V14.01,2013-03-31 17:10:00,
2013-03-31 13:15:00,46.9,19.3,30.05,SE,132,3.0,6.0,33,0.00,,CLR,0.00,VWS V14.01,2013-03-31 17:15:00,
2013-03-31 13:20:00,47.2,20.3,30.05,SE,136,6.0,7.5,34,0.00,,CLR,0.00,VWS V14.01,2013-03-31 17:20:00,
2013-03-31 13:25:00,47.8,20.1,30.05,SE,125,7.5,13.5,33,0.00,,CLR,0.00,VWS V14.01,2013-03-31 17:25:00,
2013-03-31 13:30:00,48.2,20.5,30.03,SE,128,15.0,15.0,33,0.00,,CLR,0.00,VWS V14.01,2013-03-31 17:30:00,
2013-03-31 13:35:00,48.4,22.0,30.03,SE,134,15.0,15.0,35,0.00,,CLR,0.00,VWS V14.01,2013-03-31 17:35:00,
2013-03-31 13:40:00,48.5,20.0,30.03,SE,139,9.0,16.5,32,0.00,,CLR,0.00,VWS V14.01,2013-03-31 17:40:00,
2013-03-31 13:45:00,48.2,20.5,30.02,SE,127,9.0,18.0,33,0.00,,CLR,0.00,VWS V14.01,2013-03-31 17:45:00,
2013-03-31 13:50:00,48.4,20.6,30.02,SE,137,4.5,18.0,33,0.00,,CLR,0.00,VWS V14.01,2013-03-31 17:50:00,
2013-03-31 13:55:00,48.9,19.6,30.02,SSE,148,3.0,21.0,31,0.00,,CLR,0.00,VWS V14.01,2013-03-31 17:55:00,
2013-03-31 14:00:00,49.1,23.3,30.01,SSE,158,15.0,21.0,36,0.00,,CLR,0.00,VWS V14.01,2013-03-31 18:00:00,
2013-03-31 14:05:00,49.2,21.3,30.01,SW,223,13.5,21.0,33,0.00,,CLR,0.00,VWS V14.01,2013-03-31 18:05:00,
2013-03-31 14:10:00,49.5,21.6,30.01,SE,142,15.0,21.0,33,0.00,,CLR,0.00,VWS V14.01,2013-03-31 18:10:00,
2013-03-31 14:15:00,49.4,20.0,30.01,SE,138,7.5,21.0,31,0.00,,CLR,0.00,VWS V14.01,2013-03-31 18:15:00,
2013-03-31 14:20:00,49.4,20.8,30.01,SSE,148,15.0,19.5,32,0.00,,CLR,0.00,VWS V14.01,2013-03-31 18:20:00,
2013-03-31 14:25:00,49.4,20.8,30.01,SE,135,9.0,19.5,32,0.00,,CLR,0.00,VWS V14.01,2013-03-31 18:25:00,
2013-03-31 14:30:00,49.1,22.6,30.00,SSE,151,10.5,19.5,35,0.00,,CLR,0.00,VWS V14.01,2013-03-31 18:30:00,
2013-03-31 14:35:00,48.9,20.4,30.00,SSW,192,15.0,18.0,32,0.00,,CLR,0.00,VWS V14.01,2013-03-31 18:35:00,
2013-03-31 14:40:00,49.1,22.6,30.00,SSE,160,9.0,18.0,35,0.00,,CLR,0.00,VWS V14.01,2013-03-31 18:40:00,
2013-03-31 14:46:00,49.1,22.6,29.99,SE,134,6.0,19.5,35,0.00,,CLR,0.00,VWS V14.01,2013-03-31 18:46:00,
2013-03-31 14:51:00,49.4,21.5,29.99,SE,135,10.5,19.5,33,0.00,,CLR,0.00,VWS V14.01,2013-03-31 18:51:00,
2013-03-31 14:56:00,49.7,23.2,29.99,SSW,210,15.0,19.5,35,0.00,,CLR,0.00,VWS V14.01,2013-03-31 18:56:00,
2013-03-31 15:01:00,50.1,21.4,29.98,SSW,211,12.0,19.5,32,0.00,,CLR,0.00,VWS V14.01,2013-03-31 19:01:00,
2013-03-31 15:06:00,50.9,22.8,29.98,SE,144,10.5,19.5,33,0.00,,CLR,0.00,VWS V14.01,2013-03-31 19:06:00,
2013-03-31 15:11:00,50.0,22.0,29.98,SSE,149,13.5,19.5,33,0.00,,CLR,0.00,VWS V14.01,2013-03-31 19:11:00,
2013-03-31 15:16:00,49.8,23.3,29.97,South,189,18.0,19.5,35,0.00,,CLR,0.00,VWS V14.01,2013-03-31 19:16:00,
2013-03-31 15:21:00,49.8,21.9,29.97,SSW,211,4.5,21.0,33,0.00,,CLR,0.00,VWS V14.01,2013-03-31 19:21:00,
2013-03-31 15:26:00,50.1,22.1,29.97,SSE,168,9.0,21.0,33,0.00,,CLR,0.00,VWS V14.01,2013-03-31 19:26:00,
2013-03-31 15:31:00,50.0,22.8,29.97,South,189,10.5,21.0,34,0.00,,CLR,0.00,VWS V14.01,2013-03-31 19:31:00,
2013-03-31 15:37:00,50.1,22.8,29.97,SW,214,10.5,21.0,34,0.00,,CLR,0.00,VWS V14.01,2013-03-31 19:37:00,
2013-03-31 15:42:00,50.3,21.6,29.97,SSW,198,13.5,19.5,32,0.00,,CLR,0.00,VWS V14.01,2013-03-31 19:42:00,
2013-03-31 15:47:00,51.0,19.1,29.96,SSW,199,12.0,21.0,28,0.00,,CLR,0.00,VWS V14.01,2013-03-31 19:47:00,
2013-03-31 15:52:00,51.6,18.7,29.96,SSW,207,13.5,21.0,27,0.00,,CLR,0.00,VWS V14.01,2013-03-31 19:52:00,
2013-03-31 15:57:00,51.6,19.6,29.96,South,190,18.0,22.5,28,0.00,,CLR,0.00,VWS V14.01,2013-03-31 19:57:00,
2013-03-31 16:02:00,51.3,20.1,29.95,SW,214,9.0,22.5,29,0.00,,CLR,0.00,VWS V14.01,2013-03-31 20:02:00,
2013-03-31 16:07:00,51.2,18.4,29.95,SW,218,21.0,27.0,27,0.00,,CLR,0.00,VWS V14.01,2013-03-31 20:07:00,
2013-03-31 16:12:00,51.6,19.6,29.95,SW,224,9.0,27.0,28,0.00,,CLR,0.00,VWS V14.01,2013-03-31 20:12:00,
2013-03-31 16:17:00,51.9,19.8,29.95,SSW,206,13.5,27.0,28,0.00,,CLR,0.00,VWS V14.01,2013-03-31 20:17:00,
2013-03-31 16:22:00,52.1,20.0,29.95,SW,225,16.5,27.0,28,0.00,,CLR,0.00,VWS V14.01,2013-03-31 20:22:00,
2013-03-31 16:27:00,52.1,20.0,29.95,SSW,198,15.0,27.0,28,0.00,,CLR,0.00,VWS V14.01,2013-03-31 20:27:00,
2013-03-31 16:32:00,52.1,20.0,29.95,SW,214,10.5,19.5,28,0.00,,CLR,0.00,VWS V14.01,2013-03-31 20:32:00,
2013-03-31 16:37:00,52.1,20.0,29.95,WSW,239,9.0,19.5,28,0.00,,CLR,0.00,VWS V14.01,2013-03-31 20:37:00,
2013-03-31 16:42:00,52.1,20.0,29.95,WSW,239,10.5,19.5,28,0.00,,CLR,0.00,VWS V14.01,2013-03-31 20:42:00,
2013-03-31 16:47:00,51.9,19.8,29.94,SW,232,9.0,18.0,28,0.00,,CLR,0.00,VWS V14.01,2013-03-31 20:47:00,
2013-03-31 16:52:00,51.8,18.9,29.94,SW,229,10.5,18.0,27,0.00,,CLR,0.00,VWS V14.01,2013-03-31 20:52:00,
2013-03-31 16:57:00,51.9,19.8,29.94,SW,226,3.0,18.0,28,0.00,,CLR,0.00,VWS V14.01,2013-03-31 20:57:00,
2013-03-31 17:02:00,51.9,21.5,29.93,SSW,196,7.5,18.0,30,0.00,,CLR,0.00,VWS V14.01,2013-03-31 21:02:00,
2013-03-31 17:07:00,51.5,21.1,29.93,SSW,193,10.5,15.0,30,0.00,,CLR,0.00,VWS V14.01,2013-03-31 21:07:00,
2013-03-31 17:13:00,50.0,24.8,29.93,SE,129,18.0,21.0,37,0.00,,CLR,0.00,VWS V14.01,2013-03-31 21:13:00,
2013-03-31 17:18:00,47.2,25.9,29.94,SSE,151,19.5,30.0,43,0.00,,CLR,0.00,VWS V14.01,2013-03-31 21:18:00,
2013-03-31 17:23:00,44.8,27.8,29.94,SE,145,21.0,30.0,51,0.00,,CLR,0.00,VWS V14.01,2013-03-31 21:23:00,
2013-03-31 17:28:00,43.3,27.3,29.94,SE,126,15.0,30.0,53,0.00,,CLR,0.00,VWS V14.01,2013-03-31 21:28:00,
2013-03-31 17:33:00,42.5,27.5,29.94,SSE,148,15.0,30.0,55,0.00,,CLR,0.00,VWS V14.01,2013-03-31 21:33:00,
2013-03-31 17:38:00,41.9,29.0,29.94,SSE,148,18.0,25.5,60,0.00,,CLR,0.00,VWS V14.01,2013-03-31 21:38:00,
2013-03-31 17:43:00,41.3,28.1,29.94,SE,146,16.5,22.5,59,0.00,,CLR,0.00,VWS V14.01,2013-03-31 21:43:00,
2013-03-31 17:48:00,40.8,27.6,29.93,SE,138,18.0,21.0,59,0.00,,CLR,0.00,VWS V14.01,2013-03-31 21:48:00,
2013-03-31 17:53:00,41.2,27.6,29.93,SE,132,13.5,21.0,58,0.00,,CLR,0.00,VWS V14.01,2013-03-31 21:53:00,
2013-03-31 17:58:00,41.6,27.1,29.93,SE,141,13.5,21.0,56,0.00,,CLR,0.00,VWS V14.01,2013-03-31 21:58:00,
2013-03-31 18:03:00,41.8,28.1,29.93,SE,135,15.0,21.0,58,0.00,,CLR,0.00,VWS V14.01,2013-03-31 22:03:00,
2013-03-31 18:08:00,41.3,27.6,29.93,SE,134,15.0,19.5,58,0.00,,CLR,0.00,VWS V14.01,2013-03-31 22:08:00,
2013-03-31 18:13:00,41.3,27.6,29.93,SE,130,13.5,19.5,58,0.00,,CLR,0.00,VWS V14.01,2013-03-31 22:13:00,
2013-03-31 18:18:00,41.5,27.4,29.93,SE,135,15.0,19.5,57,0.00,,CLR,0.00,VWS V14.01,2013-03-31 22:18:00,
2013-03-31 18:23:00,41.5,27.4,29.93,SE,136,13.5,18.0,57,0.00,,CLR,0.00,VWS V14.01,2013-03-31 22:23:00,
2013-03-31 18:28:00,41.6,27.1,29.93,SE,126,10.5,18.0,56,0.00,,CLR,0.00,VWS V14.01,2013-03-31 22:28:00,
2013-03-31 18:33:00,41.8,27.3,29.92,SE,131,15.0,16.5,56,0.00,,CLR,0.00,VWS V14.01,2013-03-31 22:33:00,
2013-03-31 18:38:00,41.9,27.4,29.92,SE,131,15.0,16.5,56,0.00,,CLR,0.00,VWS V14.01,2013-03-31 22:38:00,
2013-03-31 18:43:00,41.8,27.3,29.92,SE,133,13.5,16.5,56,0.00,,CLR,0.00,VWS V14.01,2013-03-31 22:43:00,
2013-03-31 18:48:00,41.6,27.5,29.92,SE,136,13.5,16.5,57,0.00,,CLR,0.00,VWS V14.01,2013-03-31 22:48:00,
2013-03-31 18:53:00,41.3,27.6,29.92,SE,134,9.0,16.5,58,0.00,,CLR,0.00,VWS V14.01,2013-03-31 22:53:00,
2013-03-31 18:58:00,41.1,28.3,29.92,SE,139,9.0,16.5,60,0.00,,CLR,0.00,VWS V14.01,2013-03-31 22:58:00,
2013-03-31 19:03:00,40.6,28.2,29.92,SE,134,9.0,15.0,61,0.00,,FEW120,0.00,VWS V14.01,2013-03-31 23:03:00,
2013-03-31 19:08:00,40.2,27.8,29.92,SE,133,7.5,15.0,61,0.00,,FEW120,0.00,VWS V14.01,2013-03-31 23:08:00,
2013-03-31 19:13:00,40.6,26.1,29.92,ESE,116,6.0,15.0,56,0.00,,FEW120,0.00,VWS V14.01,2013-03-31 23:13:00,
2013-03-31 19:18:00,42.6,26.2,29.91,SE,126,3.0,10.5,52,0.00,,FEW120,0.00,VWS V14.01,2013-03-31 23:18:00,
2013-03-31 19:23:00,43.1,26.7,29.91,ESE,122,3.0,10.5,52,0.00,,FEW120,0.00,VWS V14.01,2013-03-31 23:23:00,
2013-03-31 19:28:00,42.8,27.8,29.91,SE,135,7.5,10.5,55,0.00,,FEW120,0.00,VWS V14.01,2013-03-31 23:28:00,
2013-03-31 19:33:00,41.9,27.8,29.91,SE,130,7.5,10.5,57,0.00,,FEW120,0.00,VWS V14.01,2013-03-31 23:33:00,
2013-03-31 19:38:00,41.2,27.6,29.91,SE,135,4.5,10.5,58,0.00,,FEW120,0.00,VWS V14.01,2013-03-31 23:38:00,
2013-03-31 19:43:00,40.8,27.6,29.91,SSE,151,10.5,13.5,59,0.00,,FEW120,0.00,VWS V14.01,2013-03-31 23:43:00,
2013-03-31 19:48:00,40.6,27.0,29.91,SE,139,9.0,13.5,58,0.00,,FEW120,0.00,VWS V14.01,2013-03-31 23:48:00,
2013-03-31 19:53:00,40.6,27.4,29.91,SE,138,10.5,13.5,59,0.00,,FEW120,0.00,VWS V14.01,2013-03-31 23:53:00,
2013-03-31 19:58:00,40.6,27.4,29.91,SE,144,10.5,13.5,59,0.00,,FEW120,0.00,VWS V14.01,2013-03-31 23:58:00,
2013-03-31 20:03:00,40.3,28.3,29.91,SSE,162,3.0,13.5,62,0.00,,CLR,0.00,VWS V14.01,2013-04-01 00:03:00,
2013-03-31 20:09:00,40.1,28.1,29.91,SE,143,10.5,15.0,62,0.00,,CLR,0.00,VWS V14.01,2013-04-01 00:09:00,
2013-03-31 20:14:00,39.8,27.9,29.91,SE,139,7.5,15.0,62,0.00,,CLR,0.00,VWS V14.01,2013-04-01 00:14:00,
2013-03-31 20:19:00,39.6,27.7,29.91,SSE,161,4.5,15.0,62,0.00,,CLR,0.00,VWS V14.01,2013-04-01 00:19:00,
2013-03-31 20:24:00,39.6,26.5,29.91,South,171,6.0,15.0,59,0.00,,CLR,0.00,VWS V14.01,2013-04-01 00:24:00,
2013-03-31 20:29:00,39.8,28.2,29.91,SE,143,4.5,15.0,63,0.00,,CLR,0.00,VWS V14.01,2013-04-01 00:29:00,
2013-03-31 20:34:00,39.8,27.9,29.91,SSE,155,7.5,13.5,62,0.00,,CLR,0.00,VWS V14.01,2013-04-01 00:34:00,
2013-03-31 20:39:00,39.9,27.6,29.91,SSE,151,12.0,12.0,61,0.00,,CLR,0.00,VWS V14.01,2013-04-01 00:39:00,
2013-03-31 20:44:00,40.9,26.9,29.91,SSE,148,12.0,18.0,57,0.00,,CLR,0.00,VWS V14.01,2013-04-01 00:44:00,
2013-03-31 20:49:00,41.6,25.8,29.90,SSW,195,16.5,22.5,53,0.00,,CLR,0.00,VWS V14.01,2013-04-01 00:49:00,
2013-03-31 20:54:00,43.1,25.3,29.90,SW,228,18.0,28.5,49,0.00,,CLR,0.00,VWS V14.01,2013-04-01 00:54:00,
2013-03-31 20:59:00,45.1,26.6,29.90,SSW,207,21.0,36.0,48,0.00,,CLR,0.00,VWS V14.01,2013-04-01 00:59:00,
2013-03-31 21:04:00,45.8,28.2,29.91,SSW,208,19.5,37.5,50,0.00,,BKN080,0.00,VWS V14.01,2013-04-01 01:04:00,
2013-03-31 21:09:00,45.8,28.2,29.91,SW,229,19.5,37.5,50,0.00,,BKN080,0.00,VWS V14.01,2013-04-01 01:09:00,
2013-03-31 21:14:00,45.8,28.7,29.91,SW,220,22.5,37.5,51,0.00,,BKN080,0.00,VWS V14.01,2013-04-01 01:14:00,
2013-03-31 21:19:00,45.8,29.2,29.90,SW,218,13.5,37.5,52,0.00,,BKN080,0.00,VWS V14.01,2013-04-01 01:19:00,
2013-03-31 21:24:00,45.5,29.4,29.90,SW,233,18.0,31.5,53,0.00,,BKN080,0.00,VWS V14.01,2013-04-01 01:24:00,
2013-03-31 21:29:00,45.1,29.9,29.90,SW,228,25.5,31.5,55,0.00,,BKN080,0.00,VWS V14.01,2013-04-01 01:29:00,
2013-03-31 21:34:00,44.8,30.9,29.90,WSW,237,33.0,36.0,58,0.00,,BKN080,0.00,VWS V14.01,2013-04-01 01:34:00,
2013-03-31 21:39:00,44.1,31.9,29.90,SW,231,18.0,36.0,62,0.00,,BKN080,0.00,VWS V14.01,2013-04-01 01:39:00,
2013-03-31 21:44:00,43.3,32.3,29.90,SW,215,24.0,36.0,65,0.00,,BKN080,0.00,VWS V14.01,2013-04-01 01:44:00,
2013-03-31 21:49:00,43.1,33.3,29.90,SW,234,19.5,36.0,68,0.00,,BKN080,0.00,VWS V14.01,2013-04-01 01:49:00,
2013-03-31 21:54:00,42.5,33.4,29.90,SW,234,13.5,36.0,70,0.00,,BKN080,0.00,VWS V14.01,2013-04-01 01:54:00,
2013-03-31 21:59:00,42.3,33.6,29.90,SW,225,18.0,30.0,71,0.00,,BKN080,0.00,VWS V14.01,2013-04-01 01:59:00,
2013-03-31 22:04:00,41.9,33.9,29.90,SW,231,13.5,30.0,73,0.00,,OVC050,0.00,VWS V14.01,2013-04-01 02:04:00,
2013-03-31 22:09:00,41.8,34.1,29.90,SW,228,7.5,25.5,74,0.00,,OVC050,0.00,VWS V14.01,2013-04-01 02:09:00,
2013-03-31 22:14:00,41.5,34.2,29.89,SW,230,4.5,19.5,75,0.00,,OVC050,0.00,VWS V14.01,2013-04-01 02:14:00,
2013-03-31 22:19:00,41.3,34.3,29.89,SW,235,3.0,19.5,76,0.00,,OVC050,0.00,VWS V14.01,2013-04-01 02:19:00,
2013-03-31 22:24:00,41.2,34.5,29.89,SW,234,1.5,15.0,77,0.00,,OVC050,0.00,VWS V14.01,2013-04-01 02:24:00,
2013-03-31 22:29:00,40.9,34.6,29.89,SW,226,0.0,9.0,78,0.00,,OVC050,0.00,VWS V14.01,2013-04-01 02:29:00,
2013-03-31 22:34:00,40.6,34.9,29.89,SW,226,0.0,7.5,80,0.00,,OVC050,0.00,VWS V14.01,2013-04-01 02:34:00,
2013-03-31 22:39:00,40.3,34.9,29.89,SW,226,0.0,4.5,81,0.00,,OVC050,0.00,VWS V14.01,2013-04-01 02:39:00,
2013-03-31 22:44:00,40.1,35.1,29.89,SW,226,0.0,4.5,82,0.00,,OVC050,0.00,VWS V14.01,2013-04-01 02:44:00,
2013-03-31 22:49:00,39.9,35.2,29.88,SW,226,0.0,4.5,83,0.00,,OVC050,0.00,VWS V14.01,2013-04-01 02:49:00,
2013-03-31 22:54:00,39.8,35.4,29.88,SW,226,0.0,1.5,84,0.00,,OVC050,0.00,VWS V14.01,2013-04-01 02:54:00,
2013-03-31 22:59:00,39.5,35.4,29.87,SW,226,0.0,0.0,85,0.00,,OVC050,0.00,VWS V14.01,2013-04-01 02:59:00,
2013-03-31 23:00:00,38.9,36.2,29.83,ENE,59,7.5,9.0,90,0.02,,OVC038,0.02,VWS V14.01,2013-04-01 03:00:00,
2013-03-31 23:01:00,38.9,36.2,29.83,ENE,58,3.0,9.0,90,0.02,,OVC038,0.02,VWS V14.01,2013-04-01 03:01:00,
2013-03-31 23:02:00,38.9,36.2,29.83,ENE,58,3.0,9.0,90,0.02,,OVC037,0.02,VWS V14.01,2013-04-01 03:02:00,
2013-03-31 23:03:00,38.9,36.2,29.83,ENE,58,0.0,9.0,90,0.02,,OVC037,0.02,VWS V14.01,2013-04-01 03:03:00,
2013-03-31 23:04:00,39.2,35.4,29.87,SW,226,0.0,0.0,86,0.00,,OVC038,0.00,VWS V14.01,2013-04-01 03:04:00,
2013-03-31 23:05:00,38.9,36.2,29.83,ENE,58,0.0,9.0,90,0.02,,OVC037,0.02,VWS V14.01,2013-04-01 03:05:00,
2013-03-31 23:06:00,38.9,36.2,29.83,ENE,59,0.0,9.0,90,0.02,,OVC037,0.02,VWS V14.01,2013-04-01 03:06:00,
2013-03-31 23:07:00,38.9,36.2,29.83,ENE,59,0.0,9.0,90,0.02,,OVC037,0.02,VWS V14.01,2013-04-01 03:07:00,
2013-03-31 23:08:00,38.9,36.2,29.83,ENE,59,0.0,9.0,90,0.03,,OVC037,0.03,VWS V14.01,2013-04-01 03:08:00,
2013-03-31 23:09:00,39.2,35.7,29.87,SW,226,0.0,0.0,87,0.00,,OVC038,0.00,VWS V14.01,2013-04-01 03:09:00,
2013-03-31 23:11:00,38.9,36.2,29.83,ENE,58,0.0,9.0,90,0.02,,OVC037,0.03,VWS V14.01,2013-04-01 03:11:00,
2013-03-31 23:12:00,38.9,36.2,29.83,ENE,59,0.0,9.0,90,0.02,,OVC037,0.03,VWS V14.01,2013-04-01 03:12:00,
2013-03-31 23:13:00,38.9,36.2,29.83,ENE,58,0.0,9.0,90,0.02,,OVC037,0.03,VWS V14.01,2013-04-01 03:13:00,
2013-03-31 23:14:00,39.2,36.0,29.85,SW,226,0.0,0.0,88,0.01,,OVC038,0.01,VWS V14.01,2013-04-01 03:14:00,
2013-03-31 23:15:00,38.9,36.2,29.81,ENE,58,4.5,9.0,90,0.03,,OVC037,0.04,VWS V14.01,2013-04-01 03:15:00,
2013-03-31 23:16:00,38.9,36.2,29.81,NE,55,4.5,9.0,90,0.03,,OVC037,0.04,VWS V14.01,2013-04-01 03:16:00,
2013-03-31 23:17:00,38.9,36.2,29.81,NE,38,4.5,9.0,90,0.03,,OVC037,0.04,VWS V14.01,2013-04-01 03:17:00,
2013-03-31 23:18:00,38.9,36.2,29.81,NE,45,7.5,9.0,90,0.03,,OVC037,0.04,VWS V14.01,2013-04-01 03:18:00,
2013-03-31 23:19:00,39.1,35.8,29.85,SW,226,1.5,3.0,88,0.01,,OVC038,0.01,VWS V14.01,2013-04-01 03:19:00,
2013-03-31 23:20:00,38.9,36.2,29.81,East,85,0.0,10.5,90,0.03,,OVC037,0.04,VWS V14.01,2013-04-01 03:20:00,
2013-03-31 23:21:00,38.9,36.2,29.81,SW,219,6.0,10.5,90,0.03,,OVC037,0.04,VWS V14.01,2013-04-01 03:21:00,
2013-03-31 23:22:00,38.9,36.2,29.81,SW,221,3.0,10.5,90,0.03,,OVC037,0.04,VWS V14.01,2013-04-01 03:22:00,
2013-03-31 23:24:00,38.9,35.9,29.85,SW,226,0.0,3.0,89,0.01,,OVC038,0.01,VWS V14.01,2013-04-01 03:24:00,
2013-03-31 23:29:00,38.9,35.9,29.84,SW,226,1.5,3.0,89,0.01,,OVC038,0.01,VWS V14.01,2013-04-01 03:29:00,
2013-03-31 23:34:00,38.8,35.8,29.84,NE,52,0.0,6.0,89,0.02,,OVC038,0.02,VWS V14.01,2013-04-01 03:34:00,
2013-03-31 23:39:00,38.8,36.1,29.84,NE,52,3.0,6.0,90,0.02,,OVC038,0.02,VWS V14.01,2013-04-01 03:39:00,
2013-03-31 23:44:00,38.9,36.2,29.83,NE,38,1.5,7.5,90,0.02,,OVC038,0.02,VWS V14.01,2013-04-01 03:44:00,
2013-03-31 23:49:00,38.9,36.2,29.83,NNE,22,3.0,7.5,90,0.02,,OVC038,0.02,VWS V14.01,2013-04-01 03:49:00,
2013-03-31 23:54:00,38.9,36.2,29.83,NE,54,4.5,7.5,90,0.02,,OVC038,0.02,VWS V14.01,2013-04-01 03:54:00,
2013-03-31 23:59:00,38.9,36.2,29.83,ENE,58,4.5,9.0,90,0.02,,OVC038,0.02,VWS V14.01,2013-04-01 03:59:00,